Terminal Aerodrome Forecast
Issued by NWS

Current Version | Previous Version | Text Only | Print | Product List | Glossary On
Versions: 1 2 3 4 5 6 7 8 9 10 11 12 13 14 15 16 17 18 19 20 21 22 23
000
FTUS41 KOKX 131700
TAFSWF
TAF
KSWF 131724Z 1318/1424 21010G18KT 6SM BR OVC015
     FM132000 22013G20KT P6SM SCT015 BKN040
     FM132300 22010KT P6SM BKN040 BKN100
      TEMPO 1323/1402 4SM TSRA BKN040CB
     FM140300 22007KT 5SM BR BKN040 BKN080
     FM140600 VRB04KT 3SM BR SCT010 BKN025 BKN060
     FM141500 23007KT 6SM BR SCT025 BKN050
     FM141800 21011KT P6SM BKN050 PROB30 1418/1424 TSRA BKN040CB
      AMD NOT SKED=

USA.gov is the U.S. government's official web portal to all federal, state and local government web resources and services.